createdAt,value
2022-08-18T00:01:02.946Z,13.7
2022-08-18T00:06:01.306Z,14.1
2022-08-18T00:10:59.486Z,14.1
2022-08-18T00:15:57.442Z,13.7
2022-08-18T00:20:55.398Z,13.6
2022-08-18T00:25:53.326Z,13.5
2022-08-18T00:30:53.846Z,13.4
2022-08-18T00:35:49.201Z,13.4
2022-08-18T00:40:47.194Z,13.3
2022-08-18T00:45:45.281Z,13.3
2022-08-18T00:50:43.445Z,13.3
2022-08-18T00:55:43.748Z,13.3
2022-08-18T01:00:39.449Z,13.2
2022-08-18T01:05:37.360Z,13.2
2022-08-18T01:10:35.575Z,13.3
2022-08-18T01:15:33.736Z,13.3
2022-08-18T01:20:31.750Z,13.3
2022-08-18T01:25:29.835Z,13.3
2022-08-18T01:30:27.874Z,13.3
2022-08-18T01:35:25.834Z,13.1
2022-08-18T01:41:00.922Z,13.2
2022-08-18T01:45:21.796Z,13.2
2022-08-18T01:50:19.877Z,13.1
2022-08-18T01:55:18.042Z,13.2
2022-08-18T02:00:16.038Z,13.3
2022-08-18T02:05:14.250Z,13.3
2022-08-18T02:10:12.603Z,13.4
2022-08-18T02:15:10.293Z,13.3
2022-08-18T02:20:08.320Z,13.4
2022-08-18T02:25:06.774Z,13.3
2022-08-18T02:30:04.223Z,13.1
2022-08-18T02:35:02.266Z,12.9
2022-08-18T02:40:00.141Z,12.8
2022-08-18T02:44:58.157Z,12.8
2022-08-18T02:49:56.274Z,12.7
2022-08-18T02:54:54.248Z,12.7
2022-08-18T02:59:52.299Z,12.7
2022-08-18T03:04:50.071Z,12.7
2022-08-18T03:09:48.094Z,12.7
2022-08-18T03:14:46.011Z,12.5
2022-08-18T03:19:44.001Z,12.4
2022-08-18T03:24:42.169Z,12.4
2022-08-18T03:29:40.164Z,12.4
2022-08-18T03:34:38.466Z,12.4
2022-08-18T03:39:36.664Z,12.4
2022-08-18T03:44:34.837Z,12.4
2022-08-18T03:49:33.028Z,12.6
2022-08-18T03:54:31.247Z,13.2
2022-08-18T03:59:29.930Z,13.7
2022-08-18T04:04:28.388Z,14.1
2022-08-18T04:09:26.701Z,14.3
2022-08-18T04:18:55.971Z,17.1
2022-08-18T04:23:55.786Z,19.3
2022-08-18T04:32:47.944Z,21.7
2022-08-18T04:37:46.162Z,21.6
2022-08-18T04:42:44.138Z,22.1
2022-08-18T04:47:42.311Z,22.1
2022-08-18T04:52:41.992Z,22.1
2022-08-18T04:57:39.216Z,22.8
2022-08-18T05:02:38.114Z,23.3
2022-08-18T05:07:36.541Z,24
2022-08-18T05:12:35.168Z,24.5
2022-08-18T05:17:33.828Z,24.6
2022-08-18T05:22:32.191Z,24.7
2022-08-18T05:27:30.667Z,25.2
2022-08-18T05:32:30.235Z,25.6
2022-08-18T05:37:28.296Z,26.6
2022-08-18T05:42:26.676Z,26.6
2022-08-18T05:47:25.134Z,27.2
2022-08-18T05:52:23.685Z,27.3
2022-08-18T05:57:21.899Z,28.4
2022-08-18T06:02:20.440Z,29.1
2022-08-18T06:07:18.674Z,29.6
2022-08-18T06:12:17.104Z,30
2022-08-18T06:17:15.513Z,30.2
2022-08-18T06:22:14.265Z,30.7
2022-08-18T06:27:12.605Z,30.8
2022-08-18T06:32:11.932Z,31.8
2022-08-18T06:37:10.381Z,32
2022-08-18T06:42:08.572Z,32.3
2022-08-18T06:47:06.435Z,32.4
2022-08-18T06:52:04.750Z,33
2022-08-18T06:57:03.661Z,33.9
2022-08-18T07:02:01.975Z,33.5
2022-08-18T07:07:00.682Z,34
2022-08-18T07:11:59.904Z,35.4
2022-08-18T07:16:59.503Z,34.4
2022-08-18T07:21:56.658Z,35.3
2022-08-18T07:26:55.475Z,36
2022-08-18T07:31:54.326Z,36
2022-08-18T07:36:52.937Z,36.7
2022-08-18T07:41:51.275Z,37.5
2022-08-18T07:46:50.028Z,37.9
2022-08-18T07:51:47.795Z,37.5
2022-08-18T07:56:46.053Z,38.5
2022-08-18T08:01:45.241Z,39.7
2022-08-18T08:06:55.511Z,40
2022-08-18T08:11:45.340Z,39.9
2022-08-18T08:16:43.107Z,40.7
2022-08-18T08:21:41.307Z,40.8
2022-08-18T08:26:39.289Z,41.4
2022-08-18T08:31:38.154Z,41.4
2022-08-18T08:36:35.390Z,41.5
2022-08-18T08:41:33.959Z,41.2
2022-08-18T08:46:32.040Z,41.5
2022-08-18T08:51:30.837Z,42
2022-08-18T08:56:28.863Z,42.1
2022-08-18T09:01:26.836Z,42.2
2022-08-18T09:06:23.684Z,42.1
2022-08-18T09:11:22.676Z,43.3
2022-08-18T09:16:20.393Z,43
2022-08-18T09:21:19.149Z,43.6
2022-08-18T09:26:17.339Z,42.9
2022-08-18T09:31:19.354Z,42.8
2022-08-18T09:36:13.414Z,42.3
2022-08-18T09:41:11.168Z,41.7
2022-08-18T09:46:08.639Z,42.1
2022-08-18T09:51:06.773Z,42.3
2022-08-18T09:56:04.915Z,42
2022-08-18T10:01:01.924Z,42.2
2022-08-18T10:05:59.515Z,41.7
2022-08-18T10:11:00.311Z,42.3
2022-08-18T10:15:54.963Z,41.6
2022-08-18T10:20:53.082Z,42.3
2022-08-18T10:25:51.475Z,42.8
2022-08-18T10:35:47.075Z,42.5
2022-08-18T10:40:45.288Z,41.1
2022-08-18T10:45:50.744Z,41.9
2022-08-18T10:50:41.192Z,42.5
2022-08-18T10:55:48.472Z,42.7
2022-08-18T11:00:37.755Z,40.8
2022-08-18T11:05:35.625Z,42.2
2022-08-18T11:15:35.851Z,39.2
2022-08-18T11:20:24.496Z,37.1
2022-08-18T11:25:28.023Z,41.2
2022-08-18T11:30:29.638Z,41.1
2022-08-18T11:35:23.670Z,41.1
2022-08-18T11:40:52.274Z,41.7
2022-08-18T11:45:19.727Z,38.9
2022-08-18T11:50:17.871Z,41.2
2022-08-18T11:55:23.915Z,41.3
2022-08-18T12:00:22.682Z,42
2022-08-18T12:05:13.036Z,42.1
2022-08-18T12:10:17.510Z,41.9
2022-08-18T12:15:17.048Z,40.8
2022-08-18T12:20:06.900Z,41.4
2022-08-18T12:25:04.729Z,40.2
2022-08-18T12:30:03.127Z,41.4
2022-08-18T12:35:07.124Z,40.5
2022-08-18T12:41:52.304Z,40.6
2022-08-18T12:46:49.418Z,37.3
2022-08-18T12:51:50.217Z,38.3
2022-08-18T12:56:46.418Z,39.3
2022-08-18T13:01:44.210Z,38.7
2022-08-18T13:06:47.008Z,39
2022-08-18T13:11:40.127Z,38.5
2022-08-18T13:31:41.280Z,36
2022-08-18T13:36:38.709Z,35.4
2022-08-18T13:41:36.409Z,35
2022-08-18T13:46:33.925Z,33.9
2022-08-18T13:51:31.611Z,33.8
2022-08-18T13:56:31.619Z,33.7
2022-08-18T14:01:45.427Z,33.6
2022-08-18T14:06:24.252Z,32.2
2022-08-18T14:11:21.532Z,31.2
2022-08-18T14:16:19.561Z,31.2
2022-08-18T14:21:17.120Z,31
2022-08-18T14:26:15.028Z,31
2022-08-18T14:31:12.539Z,31
2022-08-18T14:36:10.197Z,30
2022-08-18T14:41:07.857Z,29.8
2022-08-18T14:46:05.703Z,29.4
2022-08-18T14:51:03.892Z,29.1
2022-08-18T14:56:01.882Z,29.1
2022-08-18T15:01:00.122Z,29
2022-08-18T15:05:57.854Z,28.6
2022-08-18T15:10:55.636Z,28.5
2022-08-18T15:15:53.699Z,28.1
2022-08-18T15:20:51.856Z,28
2022-08-18T15:25:51.114Z,27.8
2022-08-18T15:30:50.838Z,27.6
2022-08-18T15:35:45.737Z,27.4
2022-08-18T15:40:43.723Z,27.1
2022-08-18T15:45:43.121Z,27.3
2022-08-18T15:50:39.439Z,26.9
2022-08-18T15:55:37.659Z,26.6
2022-08-18T16:00:35.215Z,26.4
2022-08-18T16:05:33.213Z,26
2022-08-18T16:10:31.394Z,25.6
2022-08-18T16:15:29.133Z,25.1
2022-08-18T16:20:27.070Z,24.7
2022-08-18T16:25:24.753Z,24.3
2022-08-18T16:30:22.786Z,24
2022-08-18T16:35:20.682Z,23.8
2022-08-18T16:40:18.631Z,23.4
2022-08-18T16:45:16.559Z,23.2
2022-08-18T16:50:14.515Z,23
2022-08-18T16:55:12.241Z,22.7
2022-08-18T17:00:10.037Z,22.4
2022-08-18T17:05:07.919Z,22.1
2022-08-18T17:10:05.677Z,21.8
2022-08-18T17:15:03.648Z,21.4
2022-08-18T17:20:01.374Z,21.2
2022-08-18T17:24:59.231Z,21.1
2022-08-18T17:29:57.159Z,20.9
2022-08-18T17:34:54.968Z,20.6
2022-08-18T17:39:53.059Z,20.4
2022-08-18T17:44:52.165Z,20.4
2022-08-18T17:49:48.942Z,20.3
2022-08-18T17:54:46.964Z,20.1
2022-08-18T17:59:45.797Z,20
2022-08-18T18:04:43.012Z,19.9
2022-08-18T18:09:41.135Z,19.7
2022-08-18T18:14:39.070Z,19.5
2022-08-18T18:19:36.954Z,19.4
2022-08-18T18:24:35.002Z,19.3
2022-08-18T18:29:37.341Z,19.1
2022-08-18T18:34:31.346Z,19.1
2022-08-18T18:39:32.930Z,19
2022-08-18T18:44:27.516Z,18.8
2022-08-18T18:49:25.518Z,18.6
2022-08-18T18:54:23.692Z,18.5
2022-08-18T18:59:25.202Z,18.5
2022-08-18T19:04:22.531Z,18.4
2022-08-18T19:09:20.305Z,18.4
2022-08-18T19:14:18.094Z,18.4
2022-08-18T19:19:36.629Z,18.2
2022-08-18T19:24:14.239Z,18.1
2022-08-18T19:29:14.073Z,18.1
2022-08-18T19:34:10.307Z,18.1
2022-08-18T19:39:08.455Z,18
2022-08-18T19:44:06.573Z,18
2022-08-18T19:49:04.740Z,17.9
2022-08-18T19:54:02.799Z,17.7
2022-08-18T19:59:18.743Z,17.7
2022-08-18T20:03:58.767Z,17.7
2022-08-18T20:08:59.426Z,17.6
2022-08-18T20:13:57.048Z,17.7
2022-08-18T20:18:55.166Z,17.7
2022-08-18T20:23:53.141Z,17.8
2022-08-18T20:28:51.364Z,17.8
2022-08-18T20:33:49.294Z,17.6
2022-08-18T20:38:47.168Z,17.3
2022-08-18T20:43:44.957Z,17.2
2022-08-18T20:48:43.098Z,17.2
2022-08-18T20:53:41.036Z,17.1
2022-08-18T20:58:39.011Z,16.8
2022-08-18T21:03:36.926Z,16.6
2022-08-18T21:08:34.929Z,16.4
2022-08-18T21:13:33.046Z,16.1
2022-08-18T21:18:30.962Z,16.2
2022-08-18T21:23:28.859Z,16
2022-08-18T21:28:26.996Z,16
2022-08-18T21:33:25.062Z,15.9
2022-08-18T21:38:23.164Z,15.8
2022-08-18T21:43:21.225Z,14.9
2022-08-18T21:48:19.113Z,15.6
2022-08-18T21:53:17.268Z,15.8
2022-08-18T21:58:15.412Z,15.7
2022-08-18T22:03:13.563Z,15.6
2022-08-18T22:08:11.713Z,15.4
2022-08-18T22:13:09.678Z,15.4
2022-08-18T22:18:07.847Z,15.5
2022-08-18T22:23:05.946Z,15.4
2022-08-18T22:28:03.826Z,15.3
2022-08-18T22:33:01.957Z,15.1
2022-08-18T22:37:59.953Z,14.9
2022-08-18T22:42:58.013Z,14.8
2022-08-18T22:47:56.118Z,14.9
2022-08-18T22:52:54.310Z,15.2
2022-08-18T22:57:53.048Z,15.3
2022-08-18T23:02:50.577Z,15.1
2022-08-18T23:07:48.685Z,15.2
2022-08-18T23:12:47.039Z,15.1
2022-08-18T23:17:44.840Z,15
2022-08-18T23:22:42.995Z,14.8
2022-08-18T23:27:41.023Z,14.7
2022-08-18T23:32:39.215Z,14.6
2022-08-18T23:37:37.395Z,14.7
2022-08-18T23:42:35.528Z,14.7
2022-08-18T23:47:33.651Z,14.7
2022-08-18T23:52:31.856Z,14.6
2022-08-18T23:57:29.914Z,14.7
